Time;durP1;ratioP1;P1;durP2;ratioP2;P2;SDS_P1;SDS_P2;PMS_P1;PMS_P2;Temp;Humidity;BMP_temperature;BMP_pressure;BME280_temperature;BME280_humidity;BME280_pressure;Samples;Min_cycle;Max_cycle;Signal;HPM_P1;HPM_P2
2020/12/19 00:00:06;;;;;;;6.20;3.83;;;;;;;;;;5073695;28;20090;-47
2020/12/19 00:02:33;;;;;;;7.07;4.13;;;;;;;;;;5066015;28;20035;-46
2020/12/19 00:04:59;;;;;;;6.25;3.45;;;;;;;;;;5066158;28;20063;-45
2020/12/19 00:07:26;;;;;;;4.28;3.15;;;;;;;;;;5066752;28;20031;-47
2020/12/19 00:09:52;;;;;;;3.50;2.60;;;;;;;;;;5065256;28;20441;-49
2020/12/19 00:12:22;;;;;;;4.68;3.13;;;;;;;;;;5066527;28;20494;-48
2020/12/19 00:14:48;;;;;;;6.32;3.85;;;;;;;;;;5066232;28;20024;-50
2020/12/19 00:17:14;;;;;;;7.28;4.05;;;;;;;;;;5065974;28;20023;-48
2020/12/19 00:19:40;;;;;;;7.07;3.78;;;;;;;;;;5075164;28;20062;-50
2020/12/19 00:22:07;;;;;;;6.57;3.88;;;;;;;;;;5086468;28;20059;-50
2020/12/19 00:24:34;;;;;;;5.28;3.40;;;;;;;;;;5086338;28;20395;-49
2020/12/19 00:27:00;;;;;;;5.47;3.40;;;;;;;;;;5081262;28;20039;-50
2020/12/19 00:29:26;;;;;;;4.90;3.50;;;;;;;;;;5077987;28;20027;-49
2020/12/19 00:31:52;;;;;;;5.40;3.38;;;;;;;;;;5078463;28;20055;-47
2020/12/19 00:34:18;;;;;;;5.65;4.05;;;;;;;;;;5065857;28;20596;-48
2020/12/19 00:36:44;;;;;;;4.80;3.28;;;;;;;;;;5069368;28;20024;-48
2020/12/19 00:39:10;;;;;;;4.35;3.05;;;;;;;;;;5073580;28;20036;-49
2020/12/19 00:41:36;;;;;;;5.80;3.40;;;;;;;;;;5065354;28;20027;-47
2020/12/19 00:44:02;;;;;;;5.63;2.88;;;;;;;;;;5067303;28;20029;-51
2020/12/19 00:46:28;;;;;;;4.28;3.00;;;;;;;;;;5065451;28;20108;-47
2020/12/19 00:48:54;;;;;;;4.30;2.88;;;;;;;;;;5066821;28;20120;-47
2020/12/19 00:51:22;;;;;;;3.92;2.90;;;;;;;;;;5073906;28;20650;-46
2020/12/19 00:53:49;;;;;;;5.65;3.17;;;;;;;;;;5085316;28;20642;-46
2020/12/19 00:56:16;;;;;;;4.80;2.50;;;;;;;;;;5070056;28;20017;-47
2020/12/19 00:58:42;;;;;;;5.82;3.22;;;;;;;;;;5064398;28;20066;-46
2020/12/19 01:01:08;;;;;;;3.30;2.40;;;;;;;;;;5075294;28;20027;-46
2020/12/19 01:03:34;;;;;;;3.00;2.50;;;;;;;;;;5085528;28;20028;-46
2020/12/19 01:06:00;;;;;;;3.40;2.20;;;;;;;;;;5070199;28;20036;-46
2020/12/19 01:08:26;;;;;;;4.57;2.70;;;;;;;;;;5064636;28;20125;-46
2020/12/19 01:10:52;;;;;;;4.28;2.80;;;;;;;;;;5064314;28;20238;-47
2020/12/19 01:13:18;;;;;;;2.97;2.35;;;;;;;;;;5066898;28;20024;-47
2020/12/19 01:15:44;;;;;;;2.60;1.75;;;;;;;;;;5065539;28;20025;-48
2020/12/19 01:18:10;;;;;;;3.88;2.15;;;;;;;;;;5065066;28;20064;-47
2020/12/19 01:20:36;;;;;;;2.10;1.65;;;;;;;;;;5065469;28;20027;-50
2020/12/19 01:23:02;;;;;;;2.35;1.50;;;;;;;;;;5065653;28;20438;-49
2020/12/19 01:25:28;;;;;;;1.88;1.52;;;;;;;;;;5075744;28;20031;-48
2020/12/19 01:27:55;;;;;;;2.95;1.60;;;;;;;;;;5066929;28;20485;-47
2020/12/19 01:30:21;;;;;;;3.10;1.90;;;;;;;;;;5064201;28;20431;-49
2020/12/19 01:32:49;;;;;;;2.83;1.45;;;;;;;;;;5064895;28;20028;-51
2020/12/19 01:35:15;;;;;;;2.63;1.33;;;;;;;;;;5065126;28;20020;-52
2020/12/19 01:37:41;;;;;;;1.98;1.70;;;;;;;;;;5063777;28;20039;-48
2020/12/19 01:40:07;;;;;;;2.75;1.52;;;;;;;;;;5065066;28;20024;-50
2020/12/19 01:42:33;;;;;;;4.03;2.17;;;;;;;;;;5064694;28;20043;-48
2020/12/19 01:44:59;;;;;;;6.95;2.75;;;;;;;;;;5064901;28;20052;-47
2020/12/19 01:47:26;;;;;;;3.90;2.15;;;;;;;;;;5075919;28;20057;-48
2020/12/19 01:49:53;;;;;;;3.88;2.40;;;;;;;;;;5084809;28;20551;-47
2020/12/19 01:52:19;;;;;;;2.72;2.22;;;;;;;;;;5084414;28;20572;-50
2020/12/19 01:54:46;;;;;;;3.00;2.08;;;;;;;;;;5084724;28;20514;-49
2020/12/19 01:57:14;;;;;;;2.50;1.90;;;;;;;;;;5075296;28;20059;-47
2020/12/19 01:59:40;;;;;;;2.80;1.90;;;;;;;;;;5065159;28;20029;-50
2020/12/19 02:02:09;;;;;;;2.97;2.10;;;;;;;;;;5064849;28;20033;-48
2020/12/19 02:04:35;;;;;;;3.40;1.90;;;;;;;;;;5064765;28;20036;-49
2020/12/19 02:07:03;;;;;;;2.83;2.17;;;;;;;;;;5085071;28;20040;-48
2020/12/19 02:09:31;;;;;;;3.85;2.60;;;;;;;;;;5084228;28;20031;-47
2020/12/19 02:11:57;;;;;;;4.30;2.67;;;;;;;;;;5084921;28;20040;-48
2020/12/19 02:14:23;;;;;;;3.50;2.35;;;;;;;;;;5084500;28;20033;-48
2020/12/19 02:16:55;;;;;;;2.85;2.08;;;;;;;;;;5063238;28;20032;-48
2020/12/19 02:19:21;;;;;;;2.45;2.10;;;;;;;;;;5063989;28;20183;-52
2020/12/19 02:21:47;;;;;;;4.13;2.30;;;;;;;;;;5064390;28;20029;-50
2020/12/19 02:24:13;;;;;;;4.32;2.47;;;;;;;;;;5064402;28;20100;-48
2020/12/19 02:26:39;;;;;;;3.53;2.17;;;;;;;;;;5064494;28;20529;-51
2020/12/19 02:29:06;;;;;;;3.53;2.25;;;;;;;;;;5064551;28;20048;-51
2020/12/19 02:31:32;;;;;;;3.08;2.13;;;;;;;;;;5064341;28;20622;-46
2020/12/19 02:33:58;;;;;;;3.67;2.60;;;;;;;;;;5064318;28;20021;-49
2020/12/19 02:36:25;;;;;;;3.40;2.10;;;;;;;;;;5063732;28;20059;-47
2020/12/19 02:38:52;;;;;;;4.60;2.75;;;;;;;;;;5062482;28;20029;-47
2020/12/19 02:41:18;;;;;;;3.78;2.22;;;;;;;;;;5064632;28;20532;-47
2020/12/19 02:43:51;;;;;;;4.38;2.10;;;;;;;;;;5064026;28;20413;-47
2020/12/19 02:46:17;;;;;;;2.63;2.10;;;;;;;;;;5064502;28;20033;-51
2020/12/19 02:48:44;;;;;;;3.42;2.30;;;;;;;;;;5064193;28;20031;-47
2020/12/19 02:51:10;;;;;;;3.45;2.42;;;;;;;;;;5064938;28;20498;-51
2020/12/19 02:53:36;;;;;;;4.50;2.80;;;;;;;;;;5064157;28;20074;-49
2020/12/19 02:56:01;;;;;;;5.07;3.33;;;;;;;;;;5063709;28;20132;-49
2020/12/19 02:58:27;;;;;;;7.15;3.60;;;;;;;;;;5072462;28;20051;-47
2020/12/19 03:00:53;;;;;;;5.03;3.42;;;;;;;;;;5084356;28;20024;-51
2020/12/19 03:03:19;;;;;;;8.55;3.85;;;;;;;;;;5074842;28;20024;-50
2020/12/19 03:05:45;;;;;;;5.38;3.58;;;;;;;;;;5063236;28;20075;-49
2020/12/19 03:08:11;;;;;;;6.90;4.40;;;;;;;;;;5063915;28;20031;-49
2020/12/19 03:10:38;;;;;;;6.72;4.28;;;;;;;;;;5063562;28;20472;-51
2020/12/19 03:13:05;;;;;;;6.65;4.20;;;;;;;;;;5063690;28;20141;-48
2020/12/19 03:15:31;;;;;;;7.05;4.43;;;;;;;;;;5062661;28;20025;-52
2020/12/19 03:17:57;;;;;;;5.85;3.80;;;;;;;;;;5063706;28;20123;-50
2020/12/19 03:20:23;;;;;;;5.55;4.20;;;;;;;;;;5064671;28;20512;-50
2020/12/19 03:22:49;;;;;;;6.13;4.30;;;;;;;;;;5063633;28;20406;-50
2020/12/19 03:25:15;;;;;;;8.52;5.18;;;;;;;;;;5066621;28;20115;-49
2020/12/19 03:27:41;;;;;;;6.53;4.20;;;;;;;;;;5067178;28;20036;-50
2020/12/19 03:30:07;;;;;;;6.60;3.83;;;;;;;;;;5067594;28;20402;-50
2020/12/19 03:32:33;;;;;;;6.55;4.32;;;;;;;;;;5067193;28;20378;-47
2020/12/19 03:35:00;;;;;;;5.82;4.53;;;;;;;;;;5066364;28;20548;-51
2020/12/19 03:37:26;;;;;;;6.30;3.90;;;;;;;;;;5067137;28;20440;-49
2020/12/19 03:39:53;;;;;;;6.15;4.50;;;;;;;;;;5067802;28;20104;-50
2020/12/19 03:42:20;;;;;;;6.90;4.40;;;;;;;;;;5067369;28;20491;-49
2020/12/19 03:44:46;;;;;;;5.43;3.70;;;;;;;;;;5067235;28;20028;-49
2020/12/19 03:47:12;;;;;;;6.38;3.80;;;;;;;;;;5067396;28;20643;-50
2020/12/19 03:49:38;;;;;;;5.78;3.50;;;;;;;;;;5066758;28;20158;-49
2020/12/19 03:52:04;;;;;;;5.70;3.65;;;;;;;;;;5066731;28;20031;-49
2020/12/19 03:54:30;;;;;;;5.93;4.03;;;;;;;;;;5066963;28;20028;-51
2020/12/19 03:56:56;;;;;;;4.85;3.75;;;;;;;;;;5067118;28;20017;-51
2020/12/19 03:59:22;;;;;;;6.72;4.28;;;;;;;;;;5067122;28;20064;-47
2020/12/19 04:01:48;;;;;;;6.00;3.85;;;;;;;;;;5066264;28;20458;-47
2020/12/19 04:04:14;;;;;;;6.95;4.70;;;;;;;;;;5066968;28;20024;-47
2020/12/19 04:06:41;;;;;;;7.38;4.65;;;;;;;;;;5066436;28;20032;-47
2020/12/19 04:09:07;;;;;;;7.05;4.85;;;;;;;;;;5066453;28;20041;-46
2020/12/19 04:11:34;;;;;;;6.30;4.28;;;;;;;;;;5066584;28;20035;-47
2020/12/19 04:14:00;;;;;;;7.45;4.65;;;;;;;;;;5066028;28;20135;-48
2020/12/19 04:16:27;;;;;;;6.57;4.45;;;;;;;;;;5065617;28;20052;-50
2020/12/19 04:18:53;;;;;;;6.00;4.30;;;;;;;;;;5087145;28;20031;-49
2020/12/19 04:21:20;;;;;;;5.72;4.18;;;;;;;;;;5086845;28;20028;-48
2020/12/19 04:23:47;;;;;;;7.18;4.40;;;;;;;;;;5086079;28;20588;-48
2020/12/19 04:26:13;;;;;;;5.82;3.90;;;;;;;;;;5086851;28;20032;-48
2020/12/19 04:28:39;;;;;;;5.47;4.18;;;;;;;;;;5066855;28;20078;-50
2020/12/19 04:31:05;;;;;;;7.53;5.00;;;;;;;;;;5066552;28;20024;-47
2020/12/19 04:33:31;;;;;;;10.63;6.00;;;;;;;;;;5065997;28;20112;-47
2020/12/19 04:35:57;;;;;;;10.32;6.20;;;;;;;;;;5065961;28;20031;-48
2020/12/19 04:38:23;;;;;;;11.82;6.45;;;;;;;;;;5078008;28;20038;-47
2020/12/19 04:40:49;;;;;;;13.18;6.88;;;;;;;;;;5086286;28;20042;-47
2020/12/19 04:43:16;;;;;;;11.73;6.65;;;;;;;;;;5086611;28;20550;-49
2020/12/19 04:45:43;;;;;;;11.20;6.95;;;;;;;;;;5085972;28;20031;-47
2020/12/19 04:48:10;;;;;;;12.50;6.75;;;;;;;;;;5083466;28;20067;-48
2020/12/19 04:50:40;;;;;;;10.20;6.30;;;;;;;;;;5086207;28;20056;-47
2020/12/19 04:53:16;;;;;;;8.90;5.80;;;;;;;;;;5085856;28;20036;-47
2020/12/19 04:55:42;;;;;;;9.63;5.38;;;;;;;;;;5079792;28;20431;-47
2020/12/19 04:58:10;;;;;;;8.75;5.18;;;;;;;;;;5066851;28;20032;-48
2020/12/19 05:00:36;;;;;;;9.85;5.88;;;;;;;;;;5065463;28;20081;-47
2020/12/19 05:03:03;;;;;;;7.07;4.70;;;;;;;;;;5064919;28;20090;-46
2020/12/19 05:05:29;;;;;;;8.65;5.45;;;;;;;;;;5064988;28;20056;-47
2020/12/19 05:07:55;;;;;;;7.90;4.88;;;;;;;;;;5065629;28;20533;-47
2020/12/19 05:10:21;;;;;;;6.85;5.10;;;;;;;;;;5065339;28;20029;-47
2020/12/19 05:12:54;;;;;;;6.60;4.97;;;;;;;;;;5064205;28;20024;-47
2020/12/19 05:15:20;;;;;;;7.95;5.03;;;;;;;;;;5065170;28;20514;-47
2020/12/19 05:17:53;;;;;;;7.47;5.03;;;;;;;;;;5065115;28;20111;-48
2020/12/19 05:20:23;;;;;;;6.97;5.07;;;;;;;;;;5065163;28;20021;-48
2020/12/19 05:22:53;;;;;;;8.70;5.53;;;;;;;;;;5064866;28;20036;-46
2020/12/19 05:25:24;;;;;;;8.52;5.55;;;;;;;;;;5065264;28;20299;-47
2020/12/19 05:27:50;;;;;;;7.88;5.53;;;;;;;;;;5063876;28;20423;-48
2020/12/19 05:30:17;;;;;;;8.60;5.55;;;;;;;;;;5063622;28;20552;-47
2020/12/19 05:32:45;;;;;;;7.93;5.72;;;;;;;;;;5063416;28;20399;-47
2020/12/19 05:35:13;;;;;;;9.13;6.10;;;;;;;;;;5065771;28;20029;-47
2020/12/19 05:37:39;;;;;;;12.70;6.65;;;;;;;;;;5064579;28;20029;-48
2020/12/19 05:40:10;;;;;;;9.90;6.22;;;;;;;;;;5071733;28;20035;-47
2020/12/19 05:42:36;;;;;;;10.27;6.68;;;;;;;;;;5085542;28;20620;-46
2020/12/19 05:45:12;;;;;;;10.60;6.32;;;;;;;;;;5085409;28;20024;-48
2020/12/19 05:47:38;;;;;;;10.52;6.15;;;;;;;;;;5083676;28;20028;-48
2020/12/19 05:50:04;;;;;;;9.50;6.15;;;;;;;;;;5079338;28;20027;-51
2020/12/19 05:52:32;;;;;;;9.40;5.70;;;;;;;;;;5064097;28;20024;-51
2020/12/19 05:54:59;;;;;;;9.07;5.82;;;;;;;;;;5064857;28;20976;-51
2020/12/19 05:57:27;;;;;;;8.98;5.30;;;;;;;;;;5064942;28;20103;-50
2020/12/19 05:59:53;;;;;;;8.07;5.13;;;;;;;;;;5064507;28;20035;-51
2020/12/19 06:02:20;;;;;;;8.02;5.53;;;;;;;;;;5064453;28;20089;-49
2020/12/19 06:04:47;;;;;;;8.75;5.60;;;;;;;;;;5064572;28;20056;-47
2020/12/19 06:07:13;;;;;;;7.93;5.40;;;;;;;;;;5064529;28;20024;-50
2020/12/19 06:09:41;;;;;;;8.68;5.13;;;;;;;;;;5064309;28;20024;-48
2020/12/19 06:12:13;;;;;;;7.28;5.05;;;;;;;;;;5064458;28;20028;-47
2020/12/19 06:14:41;;;;;;;8.73;5.43;;;;;;;;;;5063941;28;20043;-47
2020/12/19 06:17:17;;;;;;;8.20;5.50;;;;;;;;;;5065080;28;20028;-50
2020/12/19 06:19:47;;;;;;;7.32;5.20;;;;;;;;;;5063935;28;20032;-51
2020/12/19 06:22:14;;;;;;;8.98;5.10;;;;;;;;;;5064632;28;20029;-50
2020/12/19 06:24:47;;;;;;;7.53;5.05;;;;;;;;;;5064519;28;20025;-51
2020/12/19 06:27:19;;;;;;;8.20;4.97;;;;;;;;;;5064429;28;20640;-52
2020/12/19 06:29:46;;;;;;;8.13;5.30;;;;;;;;;;5077996;28;20397;-48
2020/12/19 06:32:21;;;;;;;9.30;5.60;;;;;;;;;;5084381;28;20126;-49
2020/12/19 06:34:59;;;;;;;6.40;4.65;;;;;;;;;;5079715;28;20129;-51
2020/12/19 06:37:26;;;;;;;8.90;5.68;;;;;;;;;;5064450;28;20642;-51
2020/12/19 06:40:11;;;;;;;7.90;5.20;;;;;;;;;;5065273;28;20035;-51
2020/12/19 06:42:37;;;;;;;10.27;5.80;;;;;;;;;;5066162;28;20037;-48
2020/12/19 06:45:21;;;;;;;9.82;6.00;;;;;;;;;;5065892;28;20042;-51
2020/12/19 06:47:48;;;;;;;10.25;6.55;;;;;;;;;;5070858;28;20071;-50
2020/12/19 06:50:14;;;;;;;10.68;5.75;;;;;;;;;;5065854;28;20036;-48
2020/12/19 06:52:51;;;;;;;8.68;5.70;;;;;;;;;;5065090;28;20031;-47
2020/12/19 06:55:25;;;;;;;7.20;5.30;;;;;;;;;;5065936;28;20031;-47
2020/12/19 06:57:54;;;;;;;8.90;5.57;;;;;;;;;;5081143;28;20032;-51
2020/12/19 07:00:21;;;;;;;8.10;5.45;;;;;;;;;;5086276;28;20358;-48
2020/12/19 07:02:49;;;;;;;6.63;4.43;;;;;;;;;;5070709;28;20033;-50
2020/12/19 07:05:19;;;;;;;7.63;4.70;;;;;;;;;;5075197;28;20048;-51
2020/12/19 07:07:45;;;;;;;7.72;4.95;;;;;;;;;;5068652;28;20032;-51
2020/12/19 07:10:11;;;;;;;7.70;5.05;;;;;;;;;;5069366;28;20507;-47
2020/12/19 07:12:38;;;;;;;7.75;5.47;;;;;;;;;;5070022;28;20055;-49
2020/12/19 07:15:07;;;;;;;7.72;5.10;;;;;;;;;;5069766;28;20099;-52
2020/12/19 07:17:49;;;;;;;10.07;6.07;;;;;;;;;;5085333;28;20035;-49
2020/12/19 07:20:24;;;;;;;13.55;8.20;;;;;;;;;;5078735;28;20483;-49
2020/12/19 07:22:50;;;;;;;11.35;6.82;;;;;;;;;;5069092;28;20056;-47
2020/12/19 07:25:16;;;;;;;10.15;6.40;;;;;;;;;;5069229;28;20051;-50
2020/12/19 07:27:42;;;;;;;11.23;6.80;;;;;;;;;;5069558;28;20169;-48
2020/12/19 07:30:08;;;;;;;9.93;5.95;;;;;;;;;;5070123;28;20032;-50
2020/12/19 07:32:35;;;;;;;7.45;4.82;;;;;;;;;;5084436;28;20533;-49
2020/12/19 07:35:01;;;;;;;10.13;5.32;;;;;;;;;;5079360;28;20048;-50
2020/12/19 07:37:27;;;;;;;9.90;6.32;;;;;;;;;;5076990;28;20028;-49
2020/12/19 07:40:08;;;;;;;9.18;5.47;;;;;;;;;;5089325;28;20031;-50
2020/12/19 07:42:34;;;;;;;9.35;6.05;;;;;;;;;;5077188;28;20124;-49
2020/12/19 07:45:01;;;;;;;9.93;5.80;;;;;;;;;;5073484;28;20529;-49
2020/12/19 07:47:27;;;;;;;10.80;6.68;;;;;;;;;;5068739;28;20059;-51
2020/12/19 07:49:53;;;;;;;8.27;5.18;;;;;;;;;;5068532;28;20029;-46
2020/12/19 07:52:20;;;;;;;8.23;5.55;;;;;;;;;;5079502;28;20032;-49
2020/12/19 07:55:03;;;;;;;9.88;6.35;;;;;;;;;;5088906;28;20031;-50
2020/12/19 07:57:33;;;;;;;10.23;6.53;;;;;;;;;;5082387;28;20033;-50
2020/12/19 08:00:00;;;;;;;9.55;6.28;;;;;;;;;;5069047;28;20596;-49
2020/12/19 08:02:26;;;;;;;10.77;6.25;;;;;;;;;;5068519;28;20094;-51
2020/12/19 08:04:56;;;;;;;10.77;6.38;;;;;;;;;;5068385;28;20029;-49
2020/12/19 08:07:24;;;;;;;10.30;6.90;;;;;;;;;;5068550;28;20028;-47
2020/12/19 08:09:57;;;;;;;11.45;7.15;;;;;;;;;;5067773;28;20035;-46
2020/12/19 08:12:23;;;;;;;10.60;6.35;;;;;;;;;;5066896;28;20032;-50
2020/12/19 08:14:51;;;;;;;11.35;7.32;;;;;;;;;;5066936;28;20046;-46
2020/12/19 08:17:18;;;;;;;9.38;5.95;;;;;;;;;;5066842;28;20077;-49
2020/12/19 08:19:47;;;;;;;9.95;6.13;;;;;;;;;;5066624;28;20028;-51
2020/12/19 08:22:13;;;;;;;9.38;5.60;;;;;;;;;;5074513;28;20039;-46
2020/12/19 08:24:39;;;;;;;10.32;5.88;;;;;;;;;;5086609;28;20494;-50
2020/12/19 08:27:25;;;;;;;8.48;5.68;;;;;;;;;;5087385;28;20024;-46
2020/12/19 08:30:01;;;;;;;9.38;5.25;;;;;;;;;;5086376;28;20093;-50
2020/12/19 08:32:28;;;;;;;8.00;5.00;;;;;;;;;;5085571;28;20043;-51
2020/12/19 08:34:54;;;;;;;7.70;5.38;;;;;;;;;;5086715;28;20107;-47
2020/12/19 08:37:20;;;;;;;8.70;4.85;;;;;;;;;;5086523;28;20096;-49
2020/12/19 08:40:06;;;;;;;7.03;4.32;;;;;;;;;;5085124;28;20115;-48
2020/12/19 08:42:32;;;;;;;7.70;5.25;;;;;;;;;;5086410;28;20035;-47
2020/12/19 08:45:17;;;;;;;7.18;4.65;;;;;;;;;;5086288;28;20032;-46
2020/12/19 08:47:44;;;;;;;7.85;4.80;;;;;;;;;;5085841;28;20103;-47
2020/12/19 08:50:10;;;;;;;9.27;5.40;;;;;;;;;;5082542;28;20020;-50
2020/12/19 08:52:37;;;;;;;9.70;5.72;;;;;;;;;;5065937;28;20469;-48
2020/12/19 08:55:03;;;;;;;8.05;5.03;;;;;;;;;;5066238;28;20017;-47
2020/12/19 08:57:31;;;;;;;10.80;5.45;;;;;;;;;;5078450;28;20060;-46
2020/12/19 09:00:13;;;;;;;7.70;4.82;;;;;;;;;;5068361;28;20028;-47
2020/12/19 09:02:41;;;;;;;9.23;5.93;;;;;;;;;;5075621;28;20117;-48
2020/12/19 09:05:07;;;;;;;8.07;5.43;;;;;;;;;;5080497;28;20039;-47
2020/12/19 09:07:33;;;;;;;7.88;5.20;;;;;;;;;;5066728;28;20052;-47
2020/12/19 09:09:59;;;;;;;9.32;5.45;;;;;;;;;;5085652;28;20064;-47
2020/12/19 09:12:25;;;;;;;9.02;4.88;;;;;;;;;;5076983;28;20115;-51
2020/12/19 09:14:51;;;;;;;9.15;5.88;;;;;;;;;;5066235;28;20107;-50
2020/12/19 09:17:30;;;;;;;7.63;4.70;;;;;;;;;;5066185;28;20036;-48
2020/12/19 09:20:01;;;;;;;7.60;4.90;;;;;;;;;;5065347;28;20038;-50
2020/12/19 09:22:28;;;;;;;8.75;5.32;;;;;;;;;;5065533;28;20024;-51
2020/12/19 09:24:54;;;;;;;7.13;4.53;;;;;;;;;;5065399;28;20028;-51
2020/12/19 09:27:20;;;;;;;6.13;4.40;;;;;;;;;;5064904;28;20036;-50
2020/12/19 09:29:46;;;;;;;8.30;5.25;;;;;;;;;;5065338;28;20395;-49
2020/12/19 09:32:12;;;;;;;7.47;4.60;;;;;;;;;;5065361;28;20060;-49
2020/12/19 09:34:38;;;;;;;7.40;5.05;;;;;;;;;;5065680;28;20252;-48
2020/12/19 09:37:05;;;;;;;6.25;4.53;;;;;;;;;;5072330;28;20085;-47
2020/12/19 09:39:30;;;;;;;9.52;5.15;;;;;;;;;;5085277;28;20024;-52
2020/12/19 09:41:56;;;;;;;8.65;5.78;;;;;;;;;;5085611;28;20030;-51
2020/12/19 09:44:22;;;;;;;8.10;4.90;;;;;;;;;;5069631;28;20036;-50
2020/12/19 09:46:48;;;;;;;8.00;4.75;;;;;;;;;;5077757;28;20063;-48
2020/12/19 09:49:14;;;;;;;7.47;4.72;;;;;;;;;;5079451;28;20028;-50
2020/12/19 09:51:40;;;;;;;7.57;4.55;;;;;;;;;;5064551;28;20383;-52
2020/12/19 09:54:08;;;;;;;6.47;4.40;;;;;;;;;;5065082;28;20357;-50
2020/12/19 09:56:40;;;;;;;12.13;5.63;;;;;;;;;;5065032;28;20032;-48
2020/12/19 09:59:07;;;;;;;8.48;5.75;;;;;;;;;;5065028;28;20028;-48
2020/12/19 10:01:33;;;;;;;10.90;6.70;;;;;;;;;;5064569;28;20479;-49
2020/12/19 10:03:59;;;;;;;11.10;6.13;;;;;;;;;;5072859;28;20031;-47
2020/12/19 10:06:25;;;;;;;9.07;5.78;;;;;;;;;;5079882;28;20044;-52
2020/12/19 10:08:51;;;;;;;9.82;5.38;;;;;;;;;;5063795;28;20032;-49
2020/12/19 10:11:20;;;;;;;8.80;5.40;;;;;;;;;;5064689;28;20045;-48
2020/12/19 10:13:47;;;;;;;10.18;6.22;;;;;;;;;;5064246;28;20024;-50
2020/12/19 10:16:13;;;;;;;9.75;5.60;;;;;;;;;;5064763;28;20024;-51
2020/12/19 10:18:39;;;;;;;9.13;5.47;;;;;;;;;;5067944;28;20111;-52
2020/12/19 10:21:08;;;;;;;8.75;5.82;;;;;;;;;;5080554;28;20031;-48
2020/12/19 10:23:34;;;;;;;10.25;6.10;;;;;;;;;;5076606;28;20063;-48
2020/12/19 10:26:01;;;;;;;10.38;6.18;;;;;;;;;;5064524;28;20070;-48
2020/12/19 10:28:27;;;;;;;11.18;6.00;;;;;;;;;;5064350;28;20040;-47
2020/12/19 10:30:53;;;;;;;9.65;5.65;;;;;;;;;;5064273;28;20032;-49
2020/12/19 10:33:19;;;;;;;8.15;4.75;;;;;;;;;;5065661;28;20025;-48
2020/12/19 10:35:46;;;;;;;8.50;5.28;;;;;;;;;;5083654;28;20533;-49
2020/12/19 10:38:13;;;;;;;11.73;6.10;;;;;;;;;;5091345;28;20032;-52
2020/12/19 10:40:39;;;;;;;23.17;11.45;;;;;;;;;;5084112;28;20070;-47
2020/12/19 10:43:05;;;;;;;56.35;23.85;;;;;;;;;;5071393;28;20406;-49
2020/12/19 10:45:32;;;;;;;47.55;22.10;;;;;;;;;;5070759;28;20028;-49
2020/12/19 10:47:58;;;;;;;44.78;21.48;;;;;;;;;;5070786;28;20048;-50
2020/12/19 10:50:24;;;;;;;39.90;20.63;;;;;;;;;;5072913;28;20024;-49
2020/12/19 10:52:51;;;;;;;39.97;19.50;;;;;;;;;;5077808;28;20016;-49
2020/12/19 10:55:18;;;;;;;33.78;17.10;;;;;;;;;;5071276;28;20430;-48
2020/12/19 10:57:44;;;;;;;28.58;14.20;;;;;;;;;;5070442;28;20027;-51
2020/12/19 11:00:11;;;;;;;26.25;13.38;;;;;;;;;;5071556;28;20025;-51
2020/12/19 11:02:37;;;;;;;19.13;11.10;;;;;;;;;;5071616;28;20052;-50
2020/12/19 11:05:03;;;;;;;20.75;10.35;;;;;;;;;;5072419;28;20024;-51
2020/12/19 11:07:29;;;;;;;22.48;11.30;;;;;;;;;;5071694;28;20592;-50
2020/12/19 11:09:55;;;;;;;19.40;9.88;;;;;;;;;;5070655;28;20035;-50
2020/12/19 11:12:22;;;;;;;14.45;8.52;;;;;;;;;;5070523;28;20032;-49
2020/12/19 11:14:48;;;;;;;13.48;6.63;;;;;;;;;;5070893;28;20082;-51
2020/12/19 11:17:15;;;;;;;8.88;5.40;;;;;;;;;;5070531;28;20021;-48
2020/12/19 11:19:41;;;;;;;9.40;5.22;;;;;;;;;;5070314;28;20074;-51
2020/12/19 11:22:07;;;;;;;7.03;4.50;;;;;;;;;;5071477;28;20052;-49
2020/12/19 11:24:34;;;;;;;6.78;4.20;;;;;;;;;;5070861;28;20058;-50
2020/12/19 11:27:00;;;;;;;6.97;4.20;;;;;;;;;;5070485;28;20536;-51
2020/12/19 11:29:26;;;;;;;5.32;3.67;;;;;;;;;;5070321;28;20440;-47
2020/12/19 11:31:52;;;;;;;5.28;3.65;;;;;;;;;;5077470;28;20031;-50
2020/12/19 11:34:18;;;;;;;5.25;3.30;;;;;;;;;;5078990;28;20019;-50
2020/12/19 11:36:44;;;;;;;4.60;3.05;;;;;;;;;;5077764;28;20082;-48
2020/12/19 11:39:11;;;;;;;5.20;3.10;;;;;;;;;;5074870;28;20497;-50
2020/12/19 11:41:40;;;;;;;4.13;2.92;;;;;;;;;;5083015;28;20020;-51
2020/12/19 11:44:06;;;;;;;5.38;2.97;;;;;;;;;;5072116;28;20449;-47
2020/12/19 11:46:33;;;;;;;4.03;2.67;;;;;;;;;;5079547;28;20028;-47
2020/12/19 11:49:00;;;;;;;5.43;3.05;;;;;;;;;;5069188;28;20032;-50
2020/12/19 11:51:30;;;;;;;4.30;2.35;;;;;;;;;;5079686;28;20490;-49
2020/12/19 11:53:56;;;;;;;3.28;2.08;;;;;;;;;;5084612;28;20425;-51
2020/12/19 11:56:22;;;;;;;3.53;2.10;;;;;;;;;;5083897;28;20016;-50
2020/12/19 11:58:48;;;;;;;3.30;2.05;;;;;;;;;;5087219;28;20043;-50
2020/12/19 12:01:14;;;;;;;3.88;2.30;;;;;;;;;;5089627;28;20224;-49
2020/12/19 12:03:40;;;;;;;4.60;2.63;;;;;;;;;;5087930;28;20039;-50
2020/12/19 12:06:06;;;;;;;2.88;1.70;;;;;;;;;;5088889;28;20059;-49
2020/12/19 12:08:32;;;;;;;2.65;1.35;;;;;;;;;;5087823;28;20042;-47
2020/12/19 12:10:58;;;;;;;3.40;1.38;;;;;;;;;;5088318;28;20040;-49
2020/12/19 12:13:25;;;;;;;1.05;0.93;;;;;;;;;;5087831;28;20024;-49
2020/12/19 12:15:51;;;;;;;1.70;1.10;;;;;;;;;;5087519;28;20020;-51
2020/12/19 12:18:17;;;;;;;1.52;1.00;;;;;;;;;;5087971;28;20032;-51
2020/12/19 12:20:43;;;;;;;2.28;1.20;;;;;;;;;;5087980;28;20395;-51
2020/12/19 12:23:10;;;;;;;1.15;0.90;;;;;;;;;;5088041;28;20028;-48
2020/12/19 12:25:36;;;;;;;2.08;1.00;;;;;;;;;;5088206;28;20516;-48
2020/12/19 12:28:02;;;;;;;4.38;1.52;;;;;;;;;;5087484;28;20020;-50
2020/12/19 12:30:28;;;;;;;4.30;1.50;;;;;;;;;;5087484;28;20028;-49
2020/12/19 12:32:54;;;;;;;2.00;1.23;;;;;;;;;;5079313;28;20143;-49
2020/12/19 12:35:20;;;;;;;3.75;1.20;;;;;;;;;;5067512;28;20059;-50
2020/12/19 12:37:47;;;;;;;1.85;1.10;;;;;;;;;;5066931;28;20028;-49
2020/12/19 12:40:13;;;;;;;5.25;1.30;;;;;;;;;;5078347;28;20483;-50
2020/12/19 12:42:39;;;;;;;2.90;1.20;;;;;;;;;;5085054;28;20033;-50
2020/12/19 12:45:05;;;;;;;1.75;0.70;;;;;;;;;;5086838;28;20019;-51
2020/12/19 12:47:31;;;;;;;1.17;0.90;;;;;;;;;;5087145;28;20024;-47
2020/12/19 12:49:57;;;;;;;3.08;1.15;;;;;;;;;;5073708;28;20519;-48
2020/12/19 12:52:23;;;;;;;2.75;1.00;;;;;;;;;;5071748;28;20036;-47
2020/12/19 12:54:49;;;;;;;2.83;1.38;;;;;;;;;;5069940;28;20467;-48
2020/12/19 12:57:15;;;;;;;2.97;1.27;;;;;;;;;;5083116;28;20059;-49
2020/12/19 12:59:41;;;;;;;2.55;1.13;;;;;;;;;;5082141;28;20028;-47
2020/12/19 13:02:07;;;;;;;4.53;1.45;;;;;;;;;;5066958;28;20051;-47
2020/12/19 13:04:33;;;;;;;3.42;1.10;;;;;;;;;;5067168;28;20031;-47
2020/12/19 13:06:59;;;;;;;1.83;1.13;;;;;;;;;;5066784;28;20036;-47
2020/12/19 13:09:25;;;;;;;1.17;1.00;;;;;;;;;;5071851;28;20450;-48
2020/12/19 13:11:55;;;;;;;1.58;0.80;;;;;;;;;;5082657;28;20031;-48
2020/12/19 13:14:21;;;;;;;3.55;1.20;;;;;;;;;;5079965;28;20066;-46
2020/12/19 13:16:47;;;;;;;2.45;1.02;;;;;;;;;;5070855;28;20039;-49
2020/12/19 13:19:13;;;;;;;1.15;0.65;;;;;;;;;;5075929;28;20099;-48
2020/12/19 13:21:45;;;;;;;0.93;0.80;;;;;;;;;;5067960;28;20037;-51
2020/12/19 13:24:13;;;;;;;5.45;1.92;;;;;;;;;;5075272;28;20097;-51
2020/12/19 13:26:39;;;;;;;2.40;1.40;;;;;;;;;;5083254;28;20028;-51
2020/12/19 13:29:05;;;;;;;2.55;1.20;;;;;;;;;;5090416;28;20172;-51
2020/12/19 13:31:31;;;;;;;3.22;1.05;;;;;;;;;;5066933;28;20047;-50
2020/12/19 13:33:57;;;;;;;1.10;0.80;;;;;;;;;;5067720;28;20388;-50
2020/12/19 13:36:23;;;;;;;3.22;1.45;;;;;;;;;;5073691;28;20020;-49
2020/12/19 13:38:49;;;;;;;5.75;1.65;;;;;;;;;;5069002;28;20064;-47
2020/12/19 13:41:17;;;;;;;2.35;1.17;;;;;;;;;;5085731;28;20031;-51
2020/12/19 13:43:43;;;;;;;3.45;1.42;;;;;;;;;;5085832;28;20039;-48
2020/12/19 13:46:09;;;;;;;2.92;1.25;;;;;;;;;;5086924;28;20055;-49
2020/12/19 13:48:35;;;;;;;1.52;0.80;;;;;;;;;;5086278;28;20406;-48
2020/12/19 13:51:01;;;;;;;1.63;0.88;;;;;;;;;;5080555;28;20025;-50
2020/12/19 13:53:27;;;;;;;3.00;0.82;;;;;;;;;;5075968;28;20058;-49
2020/12/19 13:55:53;;;;;;;1.13;0.80;;;;;;;;;;5068497;28;20126;-48
2020/12/19 13:58:19;;;;;;;2.58;1.10;;;;;;;;;;5075363;28;20024;-49
2020/12/19 14:00:45;;;;;;;4.03;2.50;;;;;;;;;;5085993;28;20028;-47
2020/12/19 14:03:11;;;;;;;3.40;1.75;;;;;;;;;;5089187;28;20038;-51
2020/12/19 14:05:37;;;;;;;3.00;1.63;;;;;;;;;;5084939;28;20043;-51
2020/12/19 14:08:03;;;;;;;1.95;1.42;;;;;;;;;;5068146;28;20033;-50
2020/12/19 14:10:29;;;;;;;4.80;2.42;;;;;;;;;;5083365;28;20063;-51
2020/12/19 14:12:55;;;;;;;5.78;2.50;;;;;;;;;;5083115;28;20059;-48
2020/12/19 14:15:21;;;;;;;6.38;3.72;;;;;;;;;;5066285;28;20426;-51
2020/12/19 14:17:47;;;;;;;5.60;2.65;;;;;;;;;;5067817;28;20405;-50
2020/12/19 14:20:13;;;;;;;5.25;2.00;;;;;;;;;;5066029;28;20055;-51
2020/12/19 14:22:39;;;;;;;2.72;1.80;;;;;;;;;;5081056;28;20514;-52
2020/12/19 14:25:06;;;;;;;2.60;1.70;;;;;;;;;;5086987;28;20036;-49
2020/12/19 14:27:36;;;;;;;1.92;1.40;;;;;;;;;;5072180;28;20036;-52
2020/12/19 14:30:04;;;;;;;3.28;1.83;;;;;;;;;;5066103;28;20032;-51
2020/12/19 14:32:30;;;;;;;3.30;2.13;;;;;;;;;;5065428;28;20477;-49
2020/12/19 14:34:56;;;;;;;2.58;1.13;;;;;;;;;;5075340;28;20028;-49
2020/12/19 14:37:32;;;;;;;3.30;1.63;;;;;;;;;;5074176;28;20046;-52
2020/12/19 14:39:59;;;;;;;5.28;2.70;;;;;;;;;;5069067;28;20400;-48